createdAt,value
2019-05-21T00:01:03.207Z,12.73
2019-05-21T00:03:34.295Z,12.45
2019-05-21T00:06:05.670Z,12.42
2019-05-21T00:08:36.724Z,12.33
2019-05-21T00:11:08.275Z,12.41
2019-05-21T00:13:39.340Z,12.60
2019-05-21T00:16:10.388Z,12.41
2019-05-21T00:18:41.440Z,12.48
2019-05-21T00:21:12.630Z,12.40
2019-05-21T00:23:43.731Z,12.24
2019-05-21T00:26:14.865Z,12.35
2019-05-21T00:29:40.485Z,12.53
2019-05-21T00:33:06.254Z,12.36
2019-05-21T00:36:32.788Z,12.25
2019-05-21T00:39:58.031Z,12.23
2019-05-21T00:42:33.816Z,12.24
2019-05-21T00:45:07.971Z,12.24
2019-05-21T00:47:40.461Z,12.27
2019-05-21T00:50:12.935Z,12.39
2019-05-21T00:52:44.083Z,12.23
2019-05-21T00:55:15.299Z,12.37
2019-05-21T00:57:46.464Z,12.12
2019-05-21T01:00:17.795Z,12.21
2019-05-21T01:02:48.953Z,12.21
2019-05-21T01:05:20.038Z,12.27
2019-05-21T01:07:51.180Z,12.29
2019-05-21T01:10:22.398Z,12.33
2019-05-21T01:12:53.460Z,12.33
2019-05-21T01:15:24.704Z,12.30
2019-05-21T01:17:55.822Z,12.40
2019-05-21T01:20:27.193Z,12.15
2019-05-21T01:22:58.357Z,12.46
2019-05-21T01:25:29.487Z,12.52
2019-05-21T01:28:00.636Z,12.48
2019-05-21T01:30:32.835Z,12.55
2019-05-21T01:33:03.993Z,12.55
2019-05-21T01:35:35.081Z,12.63
2019-05-21T01:38:07.371Z,12.64
2019-05-21T01:40:38.474Z,12.71
2019-05-21T01:43:09.730Z,12.35
2019-05-21T01:45:41.128Z,12.43
2019-05-21T01:48:12.422Z,12.41
2019-05-21T01:50:43.571Z,12.20
2019-05-21T01:53:14.751Z,12.24
2019-05-21T01:55:45.952Z,12.05
2019-05-21T01:58:17.284Z,12.18
2019-05-21T02:00:48.417Z,12.25
2019-05-21T02:03:19.694Z,12.22
2019-05-21T02:05:52.069Z,12.24
2019-05-21T02:08:23.209Z,12.47
2019-05-21T02:10:54.929Z,12.28
2019-05-21T02:13:26.046Z,12.23
2019-05-21T02:15:57.192Z,12.07
2019-05-21T02:18:28.382Z,12.04
2019-05-21T02:20:59.733Z,12.00
2019-05-21T02:23:31.001Z,12.18
2019-05-21T02:26:02.043Z,12.06
2019-05-21T02:28:34.264Z,12.20
2019-05-21T02:31:05.746Z,12.08
2019-05-21T02:33:36.860Z,12.09
2019-05-21T02:36:08.164Z,12.03
2019-05-21T02:38:39.267Z,12.15
2019-05-21T02:41:10.386Z,11.96
2019-05-21T02:43:41.467Z,12.00
2019-05-21T02:46:12.669Z,11.96
2019-05-21T02:48:43.868Z,11.93
2019-05-21T02:51:15.062Z,11.94
2019-05-21T02:53:46.192Z,12.04
2019-05-21T02:56:17.384Z,11.81
2019-05-21T02:58:48.403Z,11.94
2019-05-21T03:01:35.995Z,11.96
2019-05-21T03:04:07.369Z,11.88
2019-05-21T03:06:38.908Z,12.04
2019-05-21T03:09:10.079Z,11.90
2019-05-21T03:11:41.373Z,11.91
2019-05-21T03:14:12.602Z,11.96
2019-05-21T03:16:43.805Z,11.98
2019-05-21T03:19:16.641Z,11.92
2019-05-21T03:21:48.035Z,12.16
2019-05-21T03:24:19.842Z,12.01
2019-05-21T03:26:50.877Z,11.73
2019-05-21T03:29:21.980Z,11.81
2019-05-21T03:31:53.575Z,11.69
2019-05-21T03:34:24.606Z,11.73
2019-05-21T03:36:55.729Z,11.86
2019-05-21T03:39:26.897Z,11.90
2019-05-21T03:41:58.094Z,11.69
2019-05-21T03:44:29.279Z,11.84
2019-05-21T03:47:00.370Z,11.85
2019-05-21T03:49:31.587Z,11.79
2019-05-21T03:52:02.751Z,11.70
2019-05-21T03:54:33.922Z,11.54
2019-05-21T03:57:05.046Z,11.78
2019-05-21T03:59:36.202Z,11.81
2019-05-21T04:02:07.372Z,11.80
2019-05-21T04:04:38.653Z,11.77
2019-05-21T04:07:09.798Z,11.74
2019-05-21T04:09:41.211Z,11.91
2019-05-21T04:12:12.316Z,11.80
2019-05-21T04:14:47.622Z,11.73
2019-05-21T04:17:36.271Z,11.74
2019-05-21T04:20:07.829Z,11.58
2019-05-21T04:22:52.636Z,11.64
2019-05-21T04:25:24.812Z,11.62
2019-05-21T04:27:55.930Z,11.72
2019-05-21T04:30:27.304Z,11.64
2019-05-21T04:32:58.489Z,11.70
2019-05-21T04:35:29.721Z,11.71
2019-05-21T04:38:00.865Z,11.65
2019-05-21T04:40:32.229Z,11.77
2019-05-21T04:43:03.369Z,11.64
2019-05-21T04:45:34.488Z,11.60
2019-05-21T04:48:05.703Z,11.61
2019-05-21T04:50:36.813Z,11.63
2019-05-21T04:53:08.029Z,11.77
2019-05-21T04:55:39.144Z,11.69
2019-05-21T04:58:10.311Z,11.63
2019-05-21T05:00:41.750Z,11.61
2019-05-21T05:03:13.223Z,11.54
2019-05-21T05:05:44.509Z,11.60
2019-05-21T05:08:15.729Z,11.63
2019-05-21T05:10:49.298Z,11.58
2019-05-21T05:13:19.873Z,11.69
2019-05-21T05:15:51.010Z,11.77
2019-05-21T05:18:22.091Z,11.59
2019-05-21T05:20:53.280Z,11.54
2019-05-21T05:23:24.453Z,11.46
2019-05-21T05:25:55.648Z,11.46
2019-05-21T05:28:26.709Z,11.53
2019-05-21T05:30:57.850Z,11.43
2019-05-21T05:33:28.963Z,11.57
2019-05-21T05:36:00.124Z,11.51
2019-05-21T05:38:31.224Z,11.56
2019-05-21T05:41:02.496Z,11.54
2019-05-21T05:43:33.884Z,11.49
2019-05-21T05:46:05.344Z,11.60
2019-05-21T05:48:41.892Z,11.48
2019-05-21T05:51:13.265Z,11.51
2019-05-21T05:53:59.472Z,11.72
2019-05-21T05:56:31.150Z,11.60
2019-05-21T05:59:02.337Z,11.55
2019-05-21T06:01:34.730Z,11.58
2019-05-21T06:04:05.915Z,11.75
2019-05-21T06:06:38.330Z,11.73
2019-05-21T06:09:09.620Z,11.60
2019-05-21T06:11:40.793Z,11.66
2019-05-21T06:14:11.884Z,11.52
2019-05-21T06:16:42.998Z,11.73
2019-05-21T06:19:14.434Z,11.84
2019-05-21T06:21:45.515Z,11.82
2019-05-21T06:24:16.699Z,11.76
2019-05-21T06:26:47.907Z,11.83
2019-05-21T06:29:19.145Z,11.92
2019-05-21T06:31:50.803Z,11.84
2019-05-21T06:34:21.973Z,11.79
2019-05-21T06:36:53.192Z,11.76
2019-05-21T06:39:24.403Z,11.78
2019-05-21T06:41:55.611Z,11.73
2019-05-21T06:44:26.873Z,11.86
2019-05-21T06:46:59.259Z,11.64
2019-05-21T06:49:30.362Z,11.68
2019-05-21T06:52:01.638Z,11.61
2019-05-21T06:54:32.751Z,11.55
2019-05-21T06:57:04.075Z,11.53
2019-05-21T06:59:35.175Z,11.70
2019-05-21T07:02:06.304Z,11.81
2019-05-21T07:04:37.337Z,11.78
2019-05-21T07:07:08.445Z,11.54
2019-05-21T07:09:39.601Z,11.65
2019-05-21T07:12:10.818Z,11.64
2019-05-21T07:14:42.015Z,11.48
2019-05-21T07:17:13.259Z,11.77
2019-05-21T07:19:44.506Z,11.74
2019-05-21T07:22:15.600Z,11.72
2019-05-21T07:24:46.672Z,11.67
2019-05-21T07:27:17.758Z,11.79
2019-05-21T07:29:48.986Z,11.36
2019-05-21T07:32:20.192Z,11.35
2019-05-21T07:34:51.323Z,11.20
2019-05-21T07:37:22.472Z,11.40
2019-05-21T07:39:53.714Z,11.35
2019-05-21T07:42:24.911Z,11.44
2019-05-21T07:44:56.103Z,11.67
2019-05-21T07:47:27.250Z,11.64
2019-05-21T07:49:58.435Z,11.40
2019-05-21T07:52:30.917Z,11.49
2019-05-21T07:55:02.116Z,11.40
2019-05-21T07:57:33.519Z,11.23
2019-05-21T08:00:05.834Z,11.27
2019-05-21T08:02:37.190Z,11.49
2019-05-21T08:05:08.531Z,11.46
2019-05-21T08:07:39.780Z,11.55
2019-05-21T08:10:11.637Z,11.62
2019-05-21T08:12:42.774Z,11.72
2019-05-21T08:15:14.492Z,11.42
2019-05-21T08:17:45.628Z,11.82
2019-05-21T08:20:17.621Z,11.55
2019-05-21T08:22:48.855Z,11.68
2019-05-21T08:25:19.985Z,11.66
2019-05-21T08:27:51.334Z,11.74
2019-05-21T08:30:22.612Z,11.51
2019-05-21T08:32:54.691Z,11.52
2019-05-21T08:35:25.981Z,11.66
2019-05-21T08:37:57.107Z,11.70
2019-05-21T08:40:28.193Z,11.81
2019-05-21T08:42:59.376Z,11.59
2019-05-21T08:45:30.714Z,11.60
2019-05-21T08:48:01.915Z,11.67
2019-05-21T08:50:33.190Z,11.83
2019-05-21T08:53:04.425Z,11.79
2019-05-21T08:55:35.634Z,11.89
2019-05-21T08:58:07.872Z,11.89
2019-05-21T09:00:40.298Z,11.94
2019-05-21T09:03:11.592Z,12.00
2019-05-21T09:05:42.775Z,12.06
2019-05-21T09:08:14.023Z,12.00
2019-05-21T09:10:45.242Z,12.02
2019-05-21T09:13:18.018Z,12.03
2019-05-21T09:15:49.426Z,12.03
2019-05-21T09:18:20.658Z,11.79
2019-05-21T09:20:51.957Z,12.14
2019-05-21T09:23:23.120Z,12.06
2019-05-21T09:25:54.315Z,12.09
2019-05-21T09:28:25.791Z,11.90
2019-05-21T09:30:56.955Z,11.88
2019-05-21T09:33:28.142Z,11.91
2019-05-21T09:35:59.256Z,12.15
2019-05-21T09:38:30.404Z,12.15
2019-05-21T09:41:01.659Z,12.21
2019-05-21T09:43:33.082Z,12.08
2019-05-21T09:46:04.285Z,12.11
2019-05-21T09:48:35.431Z,12.22
2019-05-21T09:51:06.738Z,12.03
2019-05-21T09:53:38.005Z,12.19
2019-05-21T09:56:26.921Z,12.28
2019-05-21T09:58:59.793Z,12.17
2019-05-21T10:01:38.038Z,12.25
2019-05-21T10:04:09.366Z,12.08
2019-05-21T10:06:40.481Z,12.39
2019-05-21T10:09:16.374Z,12.40
2019-05-21T10:11:47.520Z,12.45
2019-05-21T10:14:18.781Z,12.64
2019-05-21T10:16:50.058Z,12.48
2019-05-21T10:19:21.321Z,12.54
2019-05-21T10:21:52.493Z,12.43
2019-05-21T10:24:23.694Z,12.46
2019-05-21T10:26:54.882Z,12.51
2019-05-21T10:29:26.079Z,12.55
2019-05-21T10:31:57.311Z,12.69
2019-05-21T10:34:28.501Z,12.70
2019-05-21T10:36:59.612Z,12.87
2019-05-21T10:39:31.067Z,12.64
2019-05-21T10:42:02.300Z,12.75
2019-05-21T10:44:33.429Z,12.70
2019-05-21T10:47:04.693Z,12.58
2019-05-21T10:49:35.809Z,12.94
2019-05-21T10:52:07.112Z,12.48
2019-05-21T10:54:38.512Z,12.78
2019-05-21T10:57:10.749Z,12.79
2019-05-21T10:59:42.016Z,12.57
2019-05-21T11:02:23.209Z,12.72
2019-05-21T11:05:04.218Z,12.74
2019-05-21T11:07:35.550Z,12.63
2019-05-21T11:10:08.261Z,12.81
2019-05-21T11:12:39.701Z,13.08
2019-05-21T11:15:11.331Z,12.98
2019-05-21T11:17:53.779Z,13.03
2019-05-21T11:20:16.516Z,13.09
2019-05-21T11:22:47.688Z,13.27
2019-05-21T11:25:19.246Z,13.14
2019-05-21T11:27:50.510Z,13.24
2019-05-21T11:30:21.738Z,12.97
2019-05-21T11:32:52.956Z,13.11
2019-05-21T11:35:24.219Z,13.23
2019-05-21T11:37:55.412Z,12.80
2019-05-21T11:40:27.420Z,13.09
2019-05-21T11:42:58.622Z,13.31
2019-05-21T11:45:32.776Z,13.23
2019-05-21T11:48:02.814Z,13.01
2019-05-21T11:50:33.949Z,12.87
2019-05-21T11:53:05.082Z,12.89
2019-05-21T11:55:36.206Z,13.22
2019-05-21T11:58:07.341Z,13.52
2019-05-21T12:00:38.497Z,13.31
2019-05-21T12:03:09.916Z,13.12
2019-05-21T12:05:41.212Z,13.51
2019-05-21T12:08:12.408Z,13.65
2019-05-21T12:10:43.735Z,13.43
2019-05-21T12:13:14.913Z,13.23
2019-05-21T12:15:46.017Z,13.19
2019-05-21T12:18:17.200Z,13.15
2019-05-21T12:20:48.434Z,13.22
2019-05-21T12:23:19.450Z,13.19
2019-05-21T12:25:50.688Z,12.93
2019-05-21T12:28:21.696Z,13.05
2019-05-21T12:30:52.839Z,13.51
2019-05-21T12:33:24.116Z,13.04
2019-05-21T12:35:55.248Z,13.03
2019-05-21T12:38:26.300Z,13.19
2019-05-21T12:40:57.551Z,13.27
2019-05-21T12:43:28.673Z,13.21
2019-05-21T12:45:59.887Z,13.08
2019-05-21T12:48:31.023Z,13.12
2019-05-21T12:51:02.219Z,13.01
2019-05-21T12:53:33.248Z,12.84
2019-05-21T12:56:04.568Z,12.62
2019-05-21T12:58:35.758Z,12.90
2019-05-21T13:01:06.946Z,13.21
2019-05-21T13:03:38.063Z,13.15
2019-05-21T13:06:09.586Z,13.19
2019-05-21T13:08:40.615Z,12.91
2019-05-21T13:11:12.947Z,12.63
2019-05-21T13:13:44.170Z,12.82
2019-05-21T13:16:15.441Z,12.67
2019-05-21T13:18:46.608Z,12.76
2019-05-21T13:21:17.823Z,12.36
2019-05-21T13:23:50.138Z,12.60
2019-05-21T13:26:21.633Z,12.64
2019-05-21T13:28:52.841Z,12.90
2019-05-21T13:31:24.039Z,12.78
2019-05-21T13:33:55.221Z,12.67
2019-05-21T13:36:26.419Z,12.73
2019-05-21T13:38:57.600Z,12.53
2019-05-21T13:41:28.884Z,12.42
2019-05-21T13:44:00.034Z,12.57
2019-05-21T13:46:31.231Z,12.38
2019-05-21T13:49:02.437Z,12.41
2019-05-21T13:51:33.682Z,12.40
2019-05-21T13:54:04.858Z,12.37
2019-05-21T13:56:35.976Z,12.36
2019-05-21T13:59:07.252Z,12.39
2019-05-21T14:01:41.349Z,12.32
2019-05-21T14:04:11.588Z,12.62
2019-05-21T14:06:42.772Z,12.48
2019-05-21T14:09:13.952Z,12.56
2019-05-21T14:11:45.209Z,12.22
2019-05-21T14:14:16.496Z,12.46
2019-05-21T14:16:47.523Z,12.65
2019-05-21T14:19:18.701Z,12.29
2019-05-21T14:21:49.957Z,12.32
2019-05-21T14:24:21.113Z,12.32
2019-05-21T14:26:52.274Z,12.23
2019-05-21T14:29:23.428Z,12.18
2019-05-21T14:31:54.587Z,12.37
2019-05-21T14:34:25.733Z,12.24
2019-05-21T14:36:56.892Z,12.39
2019-05-21T14:39:28.135Z,12.24
2019-05-21T14:41:59.349Z,12.09
2019-05-21T14:44:30.412Z,12.43
2019-05-21T14:47:01.757Z,12.19
2019-05-21T14:49:32.943Z,12.25
2019-05-21T14:52:05.844Z,12.01
2019-05-21T14:54:36.942Z,12.04
2019-05-21T14:57:12.536Z,12.15
2019-05-21T14:59:43.758Z,12.12
2019-05-21T15:02:14.979Z,12.22
2019-05-21T15:04:46.354Z,12.19
2019-05-21T15:07:17.744Z,12.12
2019-05-21T15:09:53.197Z,12.19
2019-05-21T15:12:21.869Z,12.18
2019-05-21T15:14:53.406Z,12.17
2019-05-21T15:17:24.917Z,11.91
2019-05-21T15:19:57.696Z,11.99
2019-05-21T15:22:28.745Z,12.00
2019-05-21T15:24:59.849Z,12.04
2019-05-21T15:27:31.010Z,12.01
2019-05-21T15:30:02.212Z,12.05
2019-05-21T15:32:33.787Z,12.04
2019-05-21T15:35:05.457Z,12.06
2019-05-21T15:37:36.657Z,12.05
2019-05-21T15:40:08.954Z,11.91
2019-05-21T15:42:40.228Z,12.12
2019-05-21T15:45:12.565Z,12.12
2019-05-21T15:47:43.776Z,12.09
2019-05-21T15:50:16.033Z,11.94
2019-05-21T15:52:47.228Z,12.08
2019-05-21T15:55:18.600Z,12.04
2019-05-21T15:57:49.871Z,12.09
2019-05-21T16:00:23.576Z,11.99
2019-05-21T16:02:54.689Z,11.81
2019-05-21T16:05:25.978Z,11.87
2019-05-21T16:07:57.088Z,11.85
2019-05-21T16:10:28.366Z,12.02
2019-05-21T16:12:59.578Z,12.22
2019-05-21T16:15:30.700Z,12.21
2019-05-21T16:18:02.024Z,12.01
2019-05-21T16:20:33.229Z,11.83
2019-05-21T16:23:04.469Z,12.04
2019-05-21T16:25:36.981Z,11.93
2019-05-21T16:28:08.445Z,11.83
2019-05-21T16:30:39.604Z,12.06
2019-05-21T16:33:10.864Z,12.17
2019-05-21T16:35:41.960Z,11.89
2019-05-21T16:38:13.303Z,11.94
2019-05-21T16:40:44.569Z,11.73
2019-05-21T16:43:15.872Z,12.04
2019-05-21T16:45:47.177Z,11.71
2019-05-21T16:48:18.512Z,11.78
2019-05-21T16:50:49.746Z,11.75
2019-05-21T16:53:21.294Z,12.01
2019-05-21T16:55:52.426Z,12.15
2019-05-21T16:58:23.585Z,11.92
2019-05-21T17:00:54.911Z,12.11
2019-05-21T17:03:26.073Z,12.09
2019-05-21T17:05:57.157Z,12.02
2019-05-21T17:08:29.781Z,12.17
2019-05-21T17:11:00.928Z,11.80
2019-05-21T17:13:32.160Z,11.87
2019-05-21T17:16:03.372Z,11.89
2019-05-21T17:18:34.655Z,11.96
2019-05-21T17:21:05.832Z,12.02
2019-05-21T17:23:37.038Z,11.97
2019-05-21T17:26:08.414Z,12.23
2019-05-21T17:28:39.747Z,12.10
2019-05-21T17:31:11.002Z,12.10
2019-05-21T17:33:42.163Z,11.98
2019-05-21T17:36:13.368Z,12.04
2019-05-21T17:38:44.551Z,11.97
2019-05-21T17:41:15.810Z,12.17
2019-05-21T17:43:46.991Z,12.29
2019-05-21T17:46:18.141Z,12.31
2019-05-21T17:48:49.376Z,12.07
2019-05-21T17:51:20.398Z,12.29
2019-05-21T17:53:51.845Z,12.16
2019-05-21T17:56:22.893Z,12.29
2019-05-21T17:58:54.114Z,12.35
2019-05-21T18:01:26.369Z,12.00
2019-05-21T18:03:57.488Z,12.17
2019-05-21T18:06:28.998Z,12.05
2019-05-21T18:09:00.995Z,12.20
2019-05-21T18:11:34.363Z,11.92
2019-05-21T18:14:06.163Z,12.09
2019-05-21T18:16:37.512Z,12.03
2019-05-21T18:19:09.129Z,12.27
2019-05-21T18:21:40.812Z,12.22
2019-05-21T18:24:12.168Z,12.11
2019-05-21T18:26:43.283Z,12.11
2019-05-21T18:29:14.628Z,12.04
2019-05-21T18:31:45.925Z,11.89
2019-05-21T18:34:17.485Z,11.81
2019-05-21T18:36:48.625Z,12.05
2019-05-21T18:39:21.183Z,12.07
2019-05-21T18:41:52.650Z,12.29
2019-05-21T18:44:23.864Z,12.20
2019-05-21T18:46:56.273Z,12.09
2019-05-21T18:49:27.916Z,11.94
2019-05-21T18:51:59.148Z,12.02
2019-05-21T18:54:30.487Z,12.07
2019-05-21T18:57:01.589Z,12.02
2019-05-21T18:59:33.249Z,12.14
2019-05-21T19:02:05.919Z,12.05
2019-05-21T19:04:37.031Z,12.15
2019-05-21T19:07:10.808Z,12.13
2019-05-21T19:09:41.377Z,12.02
2019-05-21T19:12:12.668Z,12.12
2019-05-21T19:14:44.939Z,12.08
2019-05-21T19:17:16.546Z,12.07
2019-05-21T19:19:47.769Z,12.03
2019-05-21T19:22:18.951Z,11.86
2019-05-21T19:24:50.213Z,11.94
2019-05-21T19:27:21.373Z,11.92
2019-05-21T19:29:52.568Z,11.98
2019-05-21T19:32:23.886Z,11.99
2019-05-21T19:34:55.411Z,11.89
2019-05-21T19:37:26.549Z,11.92
2019-05-21T19:39:57.700Z,11.86
2019-05-21T19:42:28.815Z,12.09
2019-05-21T19:44:59.881Z,12.03
2019-05-21T19:47:31.091Z,12.19
2019-05-21T19:50:02.285Z,12.05
2019-05-21T19:52:33.603Z,12.09
2019-05-21T19:55:04.994Z,12.07
2019-05-21T19:57:36.989Z,12.08
2019-05-21T20:00:08.737Z,12.24
2019-05-21T20:02:40.953Z,12.25
2019-05-21T20:05:12.852Z,12.05
2019-05-21T20:07:44.542Z,12.08
2019-05-21T20:10:17.242Z,12.15
2019-05-21T20:12:48.544Z,11.99
2019-05-21T20:15:19.807Z,12.08
2019-05-21T20:18:05.133Z,12.23
2019-05-21T20:20:27.705Z,12.05
2019-05-21T20:22:59.253Z,11.97
2019-05-21T20:25:31.248Z,11.90
2019-05-21T20:28:02.974Z,11.90
2019-05-21T20:30:35.222Z,12.22
2019-05-21T20:33:07.595Z,12.13
2019-05-21T20:35:39.310Z,12.03
2019-05-21T20:38:12.248Z,11.93
2019-05-21T20:40:43.398Z,12.04
2019-05-21T20:43:14.960Z,12.19
2019-05-21T20:45:48.641Z,12.04
2019-05-21T20:48:21.683Z,12.15
2019-05-21T20:50:54.087Z,12.10
2019-05-21T20:53:25.909Z,12.19
2019-05-21T20:55:57.904Z,11.87
2019-05-21T20:58:29.383Z,11.81
2019-05-21T21:01:02.323Z,11.87
2019-05-21T21:03:33.783Z,12.04
2019-05-21T21:06:06.431Z,11.92
2019-05-21T21:08:37.699Z,11.81
2019-05-21T21:11:11.089Z,12.05
2019-05-21T21:13:44.703Z,12.00
2019-05-21T21:16:16.501Z,12.01
2019-05-21T21:18:48.092Z,12.04
2019-05-21T21:21:19.552Z,11.98
2019-05-21T21:23:52.318Z,11.97
2019-05-21T21:26:24.318Z,12.04
2019-05-21T21:28:55.562Z,12.00
2019-05-21T21:31:26.807Z,11.96
2019-05-21T21:33:58.754Z,12.11
2019-05-21T21:36:30.682Z,12.03
2019-05-21T21:39:01.839Z,11.99
2019-05-21T21:41:35.078Z,11.96
2019-05-21T21:44:06.893Z,11.90
2019-05-21T21:46:39.188Z,11.92
2019-05-21T21:49:13.226Z,11.83
2019-05-21T21:51:45.157Z,11.95
2019-05-21T21:54:16.689Z,11.85
2019-05-21T21:56:48.160Z,12.11
2019-05-21T21:59:19.344Z,12.15
2019-05-21T22:01:59.795Z,12.12
2019-05-21T22:04:37.009Z,11.93
2019-05-21T22:07:08.222Z,11.98
2019-05-21T22:09:40.190Z,11.98
2019-05-21T22:12:16.876Z,12.05
2019-05-21T22:14:55.530Z,12.15
2019-05-21T22:17:27.113Z,11.91
2019-05-21T22:19:58.577Z,11.97
2019-05-21T22:22:29.967Z,11.86
2019-05-21T22:25:02.113Z,12.01
2019-05-21T22:27:34.958Z,11.90
2019-05-21T22:30:07.970Z,12.07
2019-05-21T22:32:39.118Z,11.97
2019-05-21T22:35:10.403Z,11.99
2019-05-21T22:37:41.534Z,12.01
2019-05-21T22:40:13.152Z,12.04
2019-05-21T22:42:44.390Z,12.06
2019-05-21T22:45:15.641Z,11.86
2019-05-21T22:47:46.827Z,11.65
2019-05-21T22:50:18.685Z,11.87
2019-05-21T22:52:49.887Z,12.02
2019-05-21T22:55:21.186Z,11.95
2019-05-21T22:57:52.307Z,11.75
2019-05-21T23:00:23.696Z,11.77
2019-05-21T23:02:55.468Z,11.86
2019-05-21T23:05:26.805Z,11.69
2019-05-21T23:07:58.800Z,11.89
2019-05-21T23:10:30.210Z,12.06
2019-05-21T23:13:01.794Z,11.89
2019-05-21T23:15:33.234Z,11.93
2019-05-21T23:18:12.166Z,11.93
2019-05-21T23:21:03.379Z,11.99
2019-05-21T23:23:37.479Z,11.82
2019-05-21T23:26:10.029Z,11.76
2019-05-21T23:28:42.301Z,11.81
2019-05-21T23:31:15.105Z,11.75
2019-05-21T23:33:48.375Z,11.95
2019-05-21T23:36:19.712Z,11.88
2019-05-21T23:38:51.455Z,11.94
2019-05-21T23:41:24.253Z,11.92
2019-05-21T23:43:55.523Z,12.08
2019-05-21T23:46:26.708Z,12.01
2019-05-21T23:48:58.410Z,11.96
2019-05-21T23:51:29.661Z,11.93
2019-05-21T23:54:01.039Z,11.93
2019-05-21T23:56:32.392Z,12.02
2019-05-21T23:59:03.612Z,12.04
